sensor_id;sensor_type;location;lat;lon;timestamp;P1;durP1;ratioP1;P2;durP2;ratioP2
48789;SDS011;41718;51.980;5.734;2023-04-30T00:00:14;9.00;;;6.20;;
48789;SDS011;41718;51.980;5.734;2023-04-30T00:05:16;10.85;;;6.38;;
48789;SDS011;41718;51.980;5.734;2023-04-30T00:10:17;12.27;;;6.43;;
48789;SDS011;41718;51.980;5.734;2023-04-30T00:15:19;11.55;;;6.40;;
48789;SDS011;41718;51.980;5.734;2023-04-30T00:20:20;9.23;;;6.47;;
48789;SDS011;41718;51.980;5.734;2023-04-30T00:25:22;9.77;;;6.22;;
48789;SDS011;41718;51.980;5.734;2023-04-30T00:30:24;7.65;;;6.10;;
48789;SDS011;41718;51.980;5.734;2023-04-30T00:35:26;8.32;;;5.88;;
48789;SDS011;41718;51.980;5.734;2023-04-30T00:40:27;7.38;;;5.35;;
48789;SDS011;41718;51.980;5.734;2023-04-30T00:45:29;10.88;;;6.20;;
48789;SDS011;41718;51.980;5.734;2023-04-30T00:50:31;7.47;;;5.60;;
48789;SDS011;41718;51.980;5.734;2023-04-30T00:55:32;10.55;;;6.40;;
48789;SDS011;41718;51.980;5.734;2023-04-30T01:00:34;8.10;;;6.28;;
48789;SDS011;41718;51.980;5.734;2023-04-30T01:05:36;15.00;;;6.13;;
48789;SDS011;41718;51.980;5.734;2023-04-30T01:10:40;10.32;;;6.28;;
48789;SDS011;41718;51.980;5.734;2023-04-30T01:15:59;13.07;;;6.15;;
48789;SDS011;41718;51.980;5.734;2023-04-30T01:21:04;9.48;;;6.43;;
48789;SDS011;41718;51.980;5.734;2023-04-30T01:31:16;9.63;;;6.40;;
48789;SDS011;41718;51.980;5.734;2023-04-30T01:41:49;8.38;;;6.07;;
48789;SDS011;41718;51.980;5.734;2023-04-30T01:57:47;9.23;;;5.90;;
48789;SDS011;41718;51.980;5.734;2023-04-30T02:03:03;10.73;;;6.03;;
48789;SDS011;41718;51.980;5.734;2023-04-30T02:08:05;9.57;;;6.55;;
48789;SDS011;41718;51.980;5.734;2023-04-30T02:13:06;7.32;;;5.70;;
48789;SDS011;41718;51.980;5.734;2023-04-30T02:18:08;9.73;;;7.38;;
48789;SDS011;41718;51.980;5.734;2023-04-30T02:23:09;11.43;;;6.00;;
48789;SDS011;41718;51.980;5.734;2023-04-30T02:28:11;9.48;;;5.88;;
48789;SDS011;41718;51.980;5.734;2023-04-30T02:33:12;8.07;;;6.65;;
48789;SDS011;41718;51.980;5.734;2023-04-30T02:38:14;11.43;;;6.45;;
48789;SDS011;41718;51.980;5.734;2023-04-30T02:43:15;10.82;;;6.28;;
48789;SDS011;41718;51.980;5.734;2023-04-30T02:48:17;9.50;;;6.75;;
48789;SDS011;41718;51.980;5.734;2023-04-30T02:53:18;8.45;;;6.00;;
48789;SDS011;41718;51.980;5.734;2023-04-30T02:58:20;9.88;;;6.38;;
48789;SDS011;41718;51.980;5.734;2023-04-30T03:03:21;10.75;;;6.38;;
48789;SDS011;41718;51.980;5.734;2023-04-30T03:08:24;11.98;;;6.40;;
48789;SDS011;41718;51.980;5.734;2023-04-30T03:13:28;7.97;;;5.95;;
48789;SDS011;41718;51.980;5.734;2023-04-30T03:18:29;9.77;;;6.10;;
48789;SDS011;41718;51.980;5.734;2023-04-30T03:23:31;9.10;;;5.85;;
48789;SDS011;41718;51.980;5.734;2023-04-30T03:28:32;10.85;;;6.13;;
48789;SDS011;41718;51.980;5.734;2023-04-30T03:33:34;9.07;;;5.78;;
48789;SDS011;41718;51.980;5.734;2023-04-30T03:38:36;6.60;;;4.75;;
48789;SDS011;41718;51.980;5.734;2023-04-30T03:43:38;9.45;;;5.70;;
48789;SDS011;41718;51.980;5.734;2023-04-30T03:48:39;7.80;;;5.20;;
48789;SDS011;41718;51.980;5.734;2023-04-30T03:53:41;9.13;;;6.22;;
48789;SDS011;41718;51.980;5.734;2023-04-30T03:58:42;8.20;;;5.00;;
48789;SDS011;41718;51.980;5.734;2023-04-30T04:03:44;11.05;;;6.20;;
48789;SDS011;41718;51.980;5.734;2023-04-30T04:08:45;8.93;;;5.88;;
48789;SDS011;41718;51.980;5.734;2023-04-30T04:13:47;11.15;;;6.00;;
48789;SDS011;41718;51.980;5.734;2023-04-30T04:18:48;8.32;;;5.40;;
48789;SDS011;41718;51.980;5.734;2023-04-30T04:23:50;9.82;;;5.88;;
48789;SDS011;41718;51.980;5.734;2023-04-30T04:28:51;8.50;;;5.70;;
48789;SDS011;41718;51.980;5.734;2023-04-30T04:33:53;10.27;;;4.97;;
48789;SDS011;41718;51.980;5.734;2023-04-30T04:38:59;11.00;;;5.80;;
48789;SDS011;41718;51.980;5.734;2023-04-30T04:44:04;10.20;;;5.55;;
48789;SDS011;41718;51.980;5.734;2023-04-30T04:49:05;10.52;;;5.68;;
48789;SDS011;41718;51.980;5.734;2023-04-30T04:54:07;8.02;;;5.18;;
48789;SDS011;41718;51.980;5.734;2023-04-30T04:59:08;9.55;;;5.45;;
48789;SDS011;41718;51.980;5.734;2023-04-30T05:04:10;10.23;;;7.20;;
48789;SDS011;41718;51.980;5.734;2023-04-30T05:09:13;8.57;;;5.90;;
48789;SDS011;41718;51.980;5.734;2023-04-30T05:14:15;7.18;;;5.38;;
48789;SDS011;41718;51.980;5.734;2023-04-30T05:19:17;7.90;;;5.03;;
48789;SDS011;41718;51.980;5.734;2023-04-30T05:24:18;8.50;;;6.00;;
48789;SDS011;41718;51.980;5.734;2023-04-30T05:29:20;10.23;;;6.28;;
48789;SDS011;41718;51.980;5.734;2023-04-30T05:34:21;9.02;;;5.55;;
48789;SDS011;41718;51.980;5.734;2023-04-30T05:39:23;12.75;;;7.35;;
48789;SDS011;41718;51.980;5.734;2023-04-30T05:44:24;10.88;;;6.82;;
48789;SDS011;41718;51.980;5.734;2023-04-30T05:49:26;9.32;;;6.50;;
48789;SDS011;41718;51.980;5.734;2023-04-30T05:54:28;8.98;;;6.57;;
48789;SDS011;41718;51.980;5.734;2023-04-30T05:59:30;14.80;;;8.90;;
48789;SDS011;41718;51.980;5.734;2023-04-30T06:04:31;14.68;;;9.73;;
48789;SDS011;41718;51.980;5.734;2023-04-30T06:09:33;29.98;;;14.63;;
48789;SDS011;41718;51.980;5.734;2023-04-30T06:14:35;22.42;;;13.02;;
48789;SDS011;41718;51.980;5.734;2023-04-30T06:19:36;18.77;;;11.48;;
48789;SDS011;41718;51.980;5.734;2023-04-30T06:24:39;14.90;;;10.95;;
48789;SDS011;41718;51.980;5.734;2023-04-30T06:29:40;19.45;;;10.65;;
48789;SDS011;41718;51.980;5.734;2023-04-30T06:34:41;15.77;;;10.32;;
48789;SDS011;41718;51.980;5.734;2023-04-30T06:39:43;12.85;;;8.80;;
48789;SDS011;41718;51.980;5.734;2023-04-30T06:44:44;13.38;;;7.88;;
48789;SDS011;41718;51.980;5.734;2023-04-30T06:49:47;12.25;;;7.40;;
48789;SDS011;41718;51.980;5.734;2023-04-30T06:54:50;11.45;;;6.65;;
48789;SDS011;41718;51.980;5.734;2023-04-30T06:59:52;10.05;;;5.80;;
48789;SDS011;41718;51.980;5.734;2023-04-30T07:04:54;7.50;;;6.00;;
48789;SDS011;41718;51.980;5.734;2023-04-30T07:09:56;9.63;;;5.40;;
48789;SDS011;41718;51.980;5.734;2023-04-30T07:14:57;7.32;;;5.25;;
48789;SDS011;41718;51.980;5.734;2023-04-30T07:20:02;7.18;;;5.03;;
48789;SDS011;41718;51.980;5.734;2023-04-30T07:25:04;10.02;;;5.97;;
48789;SDS011;41718;51.980;5.734;2023-04-30T07:30:07;8.07;;;4.93;;
48789;SDS011;41718;51.980;5.734;2023-04-30T07:35:12;9.88;;;5.95;;
48789;SDS011;41718;51.980;5.734;2023-04-30T07:40:14;7.60;;;4.95;;
48789;SDS011;41718;51.980;5.734;2023-04-30T07:45:34;6.63;;;5.13;;
48789;SDS011;41718;51.980;5.734;2023-04-30T07:50:36;10.05;;;5.82;;
48789;SDS011;41718;51.980;5.734;2023-04-30T07:55:38;9.13;;;5.20;;
48789;SDS011;41718;51.980;5.734;2023-04-30T08:00:39;8.88;;;6.43;;
48789;SDS011;41718;51.980;5.734;2023-04-30T08:05:41;6.60;;;4.60;;
48789;SDS011;41718;51.980;5.734;2023-04-30T08:10:42;6.63;;;5.03;;
48789;SDS011;41718;51.980;5.734;2023-04-30T08:15:44;7.40;;;5.93;;
48789;SDS011;41718;51.980;5.734;2023-04-30T08:20:46;7.35;;;5.32;;
48789;SDS011;41718;51.980;5.734;2023-04-30T08:25:48;6.47;;;5.03;;
48789;SDS011;41718;51.980;5.734;2023-04-30T08:30:50;6.28;;;4.30;;
48789;SDS011;41718;51.980;5.734;2023-04-30T08:35:51;7.80;;;4.72;;
48789;SDS011;41718;51.980;5.734;2023-04-30T08:46:10;7.30;;;5.40;;
48789;SDS011;41718;51.980;5.734;2023-04-30T08:51:13;6.63;;;4.03;;
48789;SDS011;41718;51.980;5.734;2023-04-30T08:56:15;6.32;;;3.70;;
48789;SDS011;41718;51.980;5.734;2023-04-30T09:01:17;6.15;;;4.03;;
48789;SDS011;41718;51.980;5.734;2023-04-30T09:06:18;6.93;;;4.05;;
48789;SDS011;41718;51.980;5.734;2023-04-30T09:16:25;4.10;;;2.60;;
48789;SDS011;41718;51.980;5.734;2023-04-30T09:21:34;4.57;;;2.92;;
48789;SDS011;41718;51.980;5.734;2023-04-30T09:26:37;3.30;;;3.00;;
48789;SDS011;41718;51.980;5.734;2023-04-30T09:31:40;2.60;;;1.80;;
48789;SDS011;41718;51.980;5.734;2023-04-30T09:36:51;3.20;;;2.65;;
48789;SDS011;41718;51.980;5.734;2023-04-30T09:42:06;1.23;;;1.10;;
48789;SDS011;41718;51.980;5.734;2023-04-30T09:47:09;3.75;;;2.08;;
48789;SDS011;41718;51.980;5.734;2023-04-30T09:52:15;5.60;;;2.00;;
48789;SDS011;41718;51.980;5.734;2023-04-30T09:57:17;2.05;;;1.95;;
48789;SDS011;41718;51.980;5.734;2023-04-30T10:02:23;4.35;;;3.20;;
48789;SDS011;41718;51.980;5.734;2023-04-30T10:07:28;2.40;;;2.08;;
48789;SDS011;41718;51.980;5.734;2023-04-30T10:12:38;3.65;;;2.60;;
48789;SDS011;41718;51.980;5.734;2023-04-30T10:18:19;4.68;;;3.08;;
48789;SDS011;41718;51.980;5.734;2023-04-30T10:23:20;2.77;;;2.33;;
48789;SDS011;41718;51.980;5.734;2023-04-30T10:28:22;3.78;;;1.83;;
48789;SDS011;41718;51.980;5.734;2023-04-30T10:33:36;2.20;;;2.00;;
48789;SDS011;41718;51.980;5.734;2023-04-30T10:39:02;4.53;;;2.60;;
48789;SDS011;41718;51.980;5.734;2023-04-30T10:44:05;5.20;;;2.90;;
48789;SDS011;41718;51.980;5.734;2023-04-30T10:49:08;3.65;;;2.72;;
48789;SDS011;41718;51.980;5.734;2023-04-30T10:54:12;3.67;;;3.38;;
48789;SDS011;41718;51.980;5.734;2023-04-30T10:59:17;4.78;;;3.17;;
48789;SDS011;41718;51.980;5.734;2023-04-30T11:04:20;3.63;;;2.70;;
48789;SDS011;41718;51.980;5.734;2023-04-30T11:14:41;3.55;;;2.40;;
48789;SDS011;41718;51.980;5.734;2023-04-30T11:19:48;4.40;;;3.35;;
48789;SDS011;41718;51.980;5.734;2023-04-30T11:30:14;3.75;;;2.42;;
48789;SDS011;41718;51.980;5.734;2023-04-30T11:35:17;3.13;;;2.83;;
48789;SDS011;41718;51.980;5.734;2023-04-30T11:40:21;4.00;;;2.28;;
48789;SDS011;41718;51.980;5.734;2023-04-30T11:45:23;4.15;;;2.80;;
48789;SDS011;41718;51.980;5.734;2023-04-30T11:55:33;3.15;;;2.38;;
48789;SDS011;41718;51.980;5.734;2023-04-30T12:00:34;3.55;;;2.97;;
48789;SDS011;41718;51.980;5.734;2023-04-30T12:05:36;2.80;;;2.50;;
48789;SDS011;41718;51.980;5.734;2023-04-30T12:10:41;3.20;;;2.05;;
48789;SDS011;41718;51.980;5.734;2023-04-30T12:15:42;3.45;;;2.35;;
48789;SDS011;41718;51.980;5.734;2023-04-30T12:20:58;2.88;;;2.17;;
48789;SDS011;41718;51.980;5.734;2023-04-30T12:26:00;4.13;;;1.90;;
48789;SDS011;41718;51.980;5.734;2023-04-30T12:31:01;2.92;;;1.80;;
48789;SDS011;41718;51.980;5.734;2023-04-30T12:36:09;1.42;;;1.00;;
48789;SDS011;41718;51.980;5.734;2023-04-30T12:41:15;2.50;;;1.90;;
48789;SDS011;41718;51.980;5.734;2023-04-30T12:46:24;1.98;;;1.58;;
48789;SDS011;41718;51.980;5.734;2023-04-30T12:51:27;1.70;;;1.08;;
48789;SDS011;41718;51.980;5.734;2023-04-30T12:56:29;1.17;;;0.90;;
48789;SDS011;41718;51.980;5.734;2023-04-30T13:01:31;4.85;;;1.75;;
48789;SDS011;41718;51.980;5.734;2023-04-30T13:06:33;1.17;;;0.70;;
48789;SDS011;41718;51.980;5.734;2023-04-30T13:11:35;0.73;;;0.55;;
48789;SDS011;41718;51.980;5.734;2023-04-30T13:16:37;0.90;;;0.88;;
48789;SDS011;41718;51.980;5.734;2023-04-30T13:21:40;0.97;;;0.57;;
48789;SDS011;41718;51.980;5.734;2023-04-30T13:26:42;0.80;;;0.40;;
48789;SDS011;41718;51.980;5.734;2023-04-30T13:31:43;1.60;;;0.90;;
48789;SDS011;41718;51.980;5.734;2023-04-30T13:36:46;0.98;;;0.30;;
48789;SDS011;41718;51.980;5.734;2023-04-30T13:41:47;0.55;;;0.47;;
48789;SDS011;41718;51.980;5.734;2023-04-30T13:46:49;0.77;;;0.60;;
48789;SDS011;41718;51.980;5.734;2023-04-30T13:51:50;1.77;;;0.38;;
48789;SDS011;41718;51.980;5.734;2023-04-30T13:56:52;2.00;;;0.70;;
48789;SDS011;41718;51.980;5.734;2023-04-30T14:01:54;1.88;;;0.95;;
48789;SDS011;41718;51.980;5.734;2023-04-30T14:06:55;2.55;;;1.30;;
48789;SDS011;41718;51.980;5.734;2023-04-30T14:11:57;1.92;;;1.23;;
48789;SDS011;41718;51.980;5.734;2023-04-30T14:16:59;0.95;;;0.50;;
48789;SDS011;41718;51.980;5.734;2023-04-30T14:22:00;1.45;;;1.15;;
48789;SDS011;41718;51.980;5.734;2023-04-30T14:27:02;2.10;;;1.15;;
48789;SDS011;41718;51.980;5.734;2023-04-30T14:32:05;1.65;;;1.10;;
48789;SDS011;41718;51.980;5.734;2023-04-30T14:37:07;1.75;;;0.93;;
48789;SDS011;41718;51.980;5.734;2023-04-30T14:42:08;1.02;;;0.77;;
48789;SDS011;41718;51.980;5.734;2023-04-30T14:47:10;1.70;;;1.08;;
48789;SDS011;41718;51.980;5.734;2023-04-30T14:52:13;1.85;;;0.93;;
48789;SDS011;41718;51.980;5.734;2023-04-30T14:57:15;0.90;;;0.90;;
48789;SDS011;41718;51.980;5.734;2023-04-30T15:02:17;1.70;;;1.42;;
48789;SDS011;41718;51.980;5.734;2023-04-30T15:07:19;1.23;;;1.13;;
48789;SDS011;41718;51.980;5.734;2023-04-30T15:12:20;1.90;;;1.23;;
48789;SDS011;41718;51.980;5.734;2023-04-30T15:17:22;2.25;;;0.93;;
48789;SDS011;41718;51.980;5.734;2023-04-30T15:22:24;5.43;;;1.20;;
48789;SDS011;41718;51.980;5.734;2023-04-30T15:27:26;1.13;;;0.82;;
48789;SDS011;41718;51.980;5.734;2023-04-30T15:32:28;1.80;;;0.70;;
48789;SDS011;41718;51.980;5.734;2023-04-30T15:37:30;2.90;;;0.60;;
48789;SDS011;41718;51.980;5.734;2023-04-30T15:42:32;1.63;;;1.13;;
48789;SDS011;41718;51.980;5.734;2023-04-30T15:47:33;0.60;;;0.60;;
48789;SDS011;41718;51.980;5.734;2023-04-30T15:52:35;4.00;;;1.17;;
48789;SDS011;41718;51.980;5.734;2023-04-30T15:57:40;1.77;;;0.80;;
48789;SDS011;41718;51.980;5.734;2023-04-30T16:02:41;2.10;;;1.35;;
48789;SDS011;41718;51.980;5.734;2023-04-30T16:07:43;3.10;;;1.85;;
48789;SDS011;41718;51.980;5.734;2023-04-30T16:12:45;4.07;;;1.05;;
48789;SDS011;41718;51.980;5.734;2023-04-30T16:17:47;3.85;;;3.55;;
48789;SDS011;41718;51.980;5.734;2023-04-30T16:22:49;0.82;;;0.70;;
48789;SDS011;41718;51.980;5.734;2023-04-30T16:27:51;4.47;;;1.40;;
48789;SDS011;41718;51.980;5.734;2023-04-30T16:32:52;1.88;;;0.70;;
48789;SDS011;41718;51.980;5.734;2023-04-30T16:37:54;1.23;;;0.75;;
48789;SDS011;41718;51.980;5.734;2023-04-30T16:42:56;6.90;;;6.28;;
48789;SDS011;41718;51.980;5.734;2023-04-30T16:47:59;5.43;;;4.93;;
48789;SDS011;41718;51.980;5.734;2023-04-30T16:53:01;1.23;;;0.50;;
48789;SDS011;41718;51.980;5.734;2023-04-30T16:58:03;1.83;;;0.90;;
48789;SDS011;41718;51.980;5.734;2023-04-30T17:03:04;5.05;;;4.38;;
48789;SDS011;41718;51.980;5.734;2023-04-30T17:08:06;2.15;;;1.30;;
48789;SDS011;41718;51.980;5.734;2023-04-30T17:13:08;1.92;;;1.60;;
48789;SDS011;41718;51.980;5.734;2023-04-30T17:18:12;4.70;;;1.40;;
48789;SDS011;41718;51.980;5.734;2023-04-30T17:23:15;3.50;;;1.70;;
48789;SDS011;41718;51.980;5.734;2023-04-30T17:28:16;2.65;;;2.20;;
48789;SDS011;41718;51.980;5.734;2023-04-30T17:33:19;3.65;;;1.73;;
48789;SDS011;41718;51.980;5.734;2023-04-30T17:38:21;3.40;;;2.05;;
48789;SDS011;41718;51.980;5.734;2023-04-30T17:43:22;0.98;;;0.85;;
48789;SDS011;41718;51.980;5.734;2023-04-30T17:48:24;1.88;;;1.05;;
48789;SDS011;41718;51.980;5.734;2023-04-30T17:53:26;2.13;;;1.10;;
48789;SDS011;41718;51.980;5.734;2023-04-30T17:58:27;2.55;;;1.02;;
48789;SDS011;41718;51.980;5.734;2023-04-30T18:03:30;1.05;;;0.85;;
48789;SDS011;41718;51.980;5.734;2023-04-30T18:08:32;1.15;;;1.00;;
48789;SDS011;41718;51.980;5.734;2023-04-30T18:13:34;4.50;;;2.80;;
48789;SDS011;41718;51.980;5.734;2023-04-30T18:18:37;2.10;;;1.75;;
48789;SDS011;41718;51.980;5.734;2023-04-30T18:23:38;4.82;;;2.33;;
48789;SDS011;41718;51.980;5.734;2023-04-30T18:28:40;3.17;;;2.03;;
48789;SDS011;41718;51.980;5.734;2023-04-30T18:33:42;1.35;;;1.10;;
48789;SDS011;41718;51.980;5.734;2023-04-30T18:38:44;3.13;;;1.65;;
48789;SDS011;41718;51.980;5.734;2023-04-30T18:43:45;3.20;;;1.20;;
48789;SDS011;41718;51.980;5.734;2023-04-30T18:48:47;2.75;;;1.67;;
48789;SDS011;41718;51.980;5.734;2023-04-30T18:53:49;3.53;;;1.83;;
48789;SDS011;41718;51.980;5.734;2023-04-30T18:58:50;5.82;;;1.92;;
48789;SDS011;41718;51.980;5.734;2023-04-30T19:03:52;4.85;;;2.90;;
48789;SDS011;41718;51.980;5.734;2023-04-30T19:08:53;9.30;;;4.20;;
48789;SDS011;41718;51.980;5.734;2023-04-30T19:13:56;5.18;;;2.83;;
48789;SDS011;41718;51.980;5.734;2023-04-30T19:19:01;4.93;;;2.28;;
48789;SDS011;41718;51.980;5.734;2023-04-30T19:24:03;3.45;;;1.33;;
48789;SDS011;41718;51.980;5.734;2023-04-30T19:29:05;4.03;;;1.23;;
48789;SDS011;41718;51.980;5.734;2023-04-30T19:34:07;1.08;;;0.95;;
48789;SDS011;41718;51.980;5.734;2023-04-30T19:39:09;2.08;;;0.93;;
48789;SDS011;41718;51.980;5.734;2023-04-30T19:44:12;1.05;;;0.70;;
48789;SDS011;41718;51.980;5.734;2023-04-30T19:49:14;1.65;;;1.10;;
48789;SDS011;41718;51.980;5.734;2023-04-30T19:54:16;3.72;;;1.15;;
48789;SDS011;41718;51.980;5.734;2023-04-30T19:59:22;1.50;;;0.93;;
48789;SDS011;41718;51.980;5.734;2023-04-30T20:04:24;3.47;;;1.35;;
48789;SDS011;41718;51.980;5.734;2023-04-30T20:09:32;1.77;;;1.10;;
48789;SDS011;41718;51.980;5.734;2023-04-30T20:14:33;7.18;;;1.48;;
48789;SDS011;41718;51.980;5.734;2023-04-30T20:19:35;2.08;;;0.80;;
48789;SDS011;41718;51.980;5.734;2023-04-30T20:24:37;2.00;;;1.02;;
48789;SDS011;41718;51.980;5.734;2023-04-30T20:29:44;1.52;;;0.88;;
48789;SDS011;41718;51.980;5.734;2023-04-30T20:34:45;3.78;;;1.40;;
48789;SDS011;41718;51.980;5.734;2023-04-30T20:39:49;3.08;;;1.60;;
48789;SDS011;41718;51.980;5.734;2023-04-30T20:44:51;3.58;;;1.92;;
48789;SDS011;41718;51.980;5.734;2023-04-30T20:49:53;4.10;;;1.98;;
48789;SDS011;41718;51.980;5.734;2023-04-30T20:54:59;4.97;;;2.07;;
48789;SDS011;41718;51.980;5.734;2023-04-30T21:00:01;7.60;;;2.17;;
48789;SDS011;41718;51.980;5.734;2023-04-30T21:05:05;1.70;;;1.50;;
48789;SDS011;41718;51.980;5.734;2023-04-30T21:10:07;2.85;;;2.42;;
48789;SDS011;41718;51.980;5.734;2023-04-30T21:15:09;4.07;;;1.80;;
48789;SDS011;41718;51.980;5.734;2023-04-30T21:20:11;2.72;;;1.95;;
48789;SDS011;41718;51.980;5.734;2023-04-30T21:25:13;2.88;;;1.85;;
48789;SDS011;41718;51.980;5.734;2023-04-30T21:30:14;3.30;;;2.45;;
48789;SDS011;41718;51.980;5.734;2023-04-30T21:35:17;4.47;;;2.42;;
48789;SDS011;41718;51.980;5.734;2023-04-30T21:40:18;5.15;;;1.83;;
48789;SDS011;41718;51.980;5.734;2023-04-30T21:45:20;2.33;;;2.13;;
48789;SDS011;41718;51.980;5.734;2023-04-30T21:50:22;3.28;;;2.25;;
48789;SDS011;41718;51.980;5.734;2023-04-30T21:55:24;4.47;;;2.92;;
48789;SDS011;41718;51.980;5.734;2023-04-30T22:00:26;4.38;;;2.80;;
48789;SDS011;41718;51.980;5.734;2023-04-30T22:05:28;3.78;;;2.50;;
48789;SDS011;41718;51.980;5.734;2023-04-30T22:10:29;1.77;;;1.67;;
48789;SDS011;41718;51.980;5.734;2023-04-30T22:15:31;2.33;;;1.92;;
48789;SDS011;41718;51.980;5.734;2023-04-30T22:20:48;2.80;;;2.08;;
48789;SDS011;41718;51.980;5.734;2023-04-30T22:25:51;5.68;;;2.63;;
48789;SDS011;41718;51.980;5.734;2023-04-30T22:30:56;3.95;;;2.60;;
48789;SDS011;41718;51.980;5.734;2023-04-30T22:36:04;3.08;;;2.40;;
48789;SDS011;41718;51.980;5.734;2023-04-30T22:41:06;4.85;;;2.10;;
48789;SDS011;41718;51.980;5.734;2023-04-30T22:46:08;2.75;;;2.35;;
48789;SDS011;41718;51.980;5.734;2023-04-30T22:51:10;2.85;;;2.35;;
48789;SDS011;41718;51.980;5.734;2023-04-30T22:56:12;4.00;;;2.30;;
48789;SDS011;41718;51.980;5.734;2023-04-30T23:01:14;3.65;;;2.35;;
48789;SDS011;41718;51.980;5.734;2023-04-30T23:06:15;3.30;;;2.50;;
48789;SDS011;41718;51.980;5.734;2023-04-30T23:11:17;4.32;;;2.83;;
48789;SDS011;41718;51.980;5.734;2023-04-30T23:16:20;5.53;;;2.20;;
48789;SDS011;41718;51.980;5.734;2023-04-30T23:21:22;5.88;;;2.65;;
48789;SDS011;41718;51.980;5.734;2023-04-30T23:26:24;2.88;;;2.13;;
48789;SDS011;41718;51.980;5.734;2023-04-30T23:31:25;2.38;;;1.95;;
48789;SDS011;41718;51.980;5.734;2023-04-30T23:36:27;2.90;;;1.88;;
48789;SDS011;41718;51.980;5.734;2023-04-30T23:41:28;3.13;;;1.95;;
48789;SDS011;41718;51.980;5.734;2023-04-30T23:46:30;2.55;;;2.30;;
48789;SDS011;41718;51.980;5.734;2023-04-30T23:51:31;6.00;;;2.15;;
48789;SDS011;41718;51.980;5.734;2023-04-30T23:56:33;3.38;;;1.95;;
